createdAt,value
2023-03-18T00:00:10.066Z,64.57
2023-03-18T00:01:11.734Z,63.83
2023-03-18T00:02:13.262Z,64.17
2023-03-18T00:03:14.783Z,64.30
2023-03-18T00:04:16.814Z,64.25
2023-03-18T00:05:18.312Z,64.32
2023-03-18T00:06:21.801Z,62.96
2023-03-18T00:07:23.214Z,63.60
2023-03-18T00:08:25.398Z,62.96
2023-03-18T00:09:26.879Z,63.20
2023-03-18T00:10:29.895Z,63.50
2023-03-18T00:11:31.747Z,63.24
2023-03-18T00:12:33.382Z,62.76
2023-03-18T00:13:35.048Z,63.46
2023-03-18T00:14:38.566Z,62.32
2023-03-18T00:15:40.588Z,63.12
2023-03-18T00:16:41.989Z,64.72
2023-03-18T00:17:44.087Z,63.64
2023-03-18T00:18:45.526Z,63.48
2023-03-18T00:19:47.110Z,63.46
2023-03-18T00:20:48.706Z,65.77
2023-03-18T00:21:50.619Z,66.08
2023-03-18T00:22:52.007Z,63.23
2023-03-18T00:23:56.459Z,64.23
2023-03-18T00:24:57.906Z,63.71
2023-03-18T00:26:01.333Z,64.17
2023-03-18T00:27:03.549Z,63.83
2023-03-18T00:28:06.960Z,63.29
2023-03-18T00:29:08.778Z,64.50
2023-03-18T00:30:12.391Z,64.07
2023-03-18T00:31:14.087Z,63.60
2023-03-18T00:32:15.741Z,64.13
2023-03-18T00:33:18.224Z,64.21
2023-03-18T00:34:20.910Z,64.16
2023-03-18T00:35:23.847Z,65.02
2023-03-18T00:36:28.027Z,63.95
2023-03-18T00:37:33.322Z,64.84
2023-03-18T00:38:35.599Z,63.97
2023-03-18T00:39:37.424Z,64.88
2023-03-18T00:40:53.252Z,64.66
2023-03-18T00:41:56.719Z,64.16
2023-03-18T00:43:07.778Z,63.22
2023-03-18T00:44:09.889Z,64.23
2023-03-18T00:45:11.868Z,63.52
2023-03-18T00:46:16.257Z,64.61
2023-03-18T00:47:17.827Z,64.92
2023-03-18T00:48:19.328Z,64.33
2023-03-18T00:49:20.799Z,64.18
2023-03-18T00:50:22.324Z,64.30
2023-03-18T00:51:26.491Z,66.43
2023-03-18T00:52:27.947Z,64.32
2023-03-18T00:53:29.365Z,63.91
2023-03-18T00:54:30.966Z,64.13
2023-03-18T00:55:33.369Z,65.53
2023-03-18T00:56:37.462Z,66.00
2023-03-18T00:57:38.894Z,65.74
2023-03-18T00:58:40.997Z,65.26
2023-03-18T00:59:42.704Z,65.80
2023-03-18T01:00:45.934Z,64.65
2023-03-18T01:01:47.414Z,65.01
2023-03-18T01:02:49.281Z,63.92
2023-03-18T01:03:51.102Z,64.88
2023-03-18T01:04:53.226Z,65.24
2023-03-18T01:05:54.731Z,65.18
2023-03-18T01:06:56.239Z,65.45
2023-03-18T01:07:58.117Z,65.60
2023-03-18T01:09:01.391Z,65.99
2023-03-18T01:10:03.211Z,65.65
2023-03-18T01:11:05.061Z,64.63
2023-03-18T01:12:08.707Z,64.88
2023-03-18T01:13:10.115Z,65.32
2023-03-18T01:14:12.249Z,65.70
2023-03-18T01:15:17.572Z,65.44
2023-03-18T01:16:21.025Z,66.28
2023-03-18T01:17:22.469Z,65.38
2023-03-18T01:18:24.344Z,66.28
2023-03-18T01:19:26.639Z,66.22
2023-03-18T01:20:29.236Z,64.99
2023-03-18T01:21:30.716Z,65.63
2023-03-18T01:22:32.539Z,65.34
2023-03-18T01:23:35.293Z,65.29
2023-03-18T01:24:36.735Z,66.03
2023-03-18T01:25:38.495Z,65.57
2023-03-18T01:26:40.143Z,65.72
2023-03-18T01:27:42.080Z,66.79
2023-03-18T01:28:43.758Z,67.02
2023-03-18T01:29:46.437Z,66.61
2023-03-18T01:30:48.345Z,66.58
2023-03-18T01:31:51.233Z,66.33
2023-03-18T01:32:53.968Z,66.21
2023-03-18T01:33:56.077Z,67.65
2023-03-18T01:34:57.971Z,67.24
2023-03-18T01:36:02.273Z,66.94
2023-03-18T01:37:03.872Z,66.72
2023-03-18T01:38:06.152Z,66.77
2023-03-18T01:39:08.755Z,67.35
2023-03-18T01:40:12.030Z,66.00
2023-03-18T01:41:13.555Z,65.95
2023-03-18T01:42:18.023Z,66.37
2023-03-18T01:43:23.965Z,64.44
2023-03-18T01:44:25.673Z,65.37
2023-03-18T01:45:29.805Z,65.99
2023-03-18T01:46:40.853Z,65.35
2023-03-18T01:47:44.567Z,65.09
2023-03-18T01:48:46.160Z,63.98
2023-03-18T01:49:50.182Z,64.58
2023-03-18T01:50:56.856Z,64.58
2023-03-18T01:52:05.192Z,64.07
2023-03-18T01:53:16.141Z,64.00
2023-03-18T01:54:18.972Z,64.79
2023-03-18T01:55:25.448Z,64.30
2023-03-18T01:56:27.759Z,65.73
2023-03-18T01:57:32.692Z,65.92
2023-03-18T01:58:41.748Z,64.60
2023-03-18T01:59:45.753Z,64.99
2023-03-18T02:00:57.688Z,63.77
2023-03-18T02:02:03.646Z,66.89
2023-03-18T02:03:06.149Z,65.87
2023-03-18T02:04:10.475Z,65.65
2023-03-18T02:05:15.316Z,65.90
2023-03-18T02:06:16.962Z,65.84
2023-03-18T02:07:21.528Z,65.85
2023-03-18T02:08:23.510Z,66.83
2023-03-18T02:09:25.136Z,65.60
2023-03-18T02:10:29.086Z,66.12
2023-03-18T02:11:36.941Z,65.70
2023-03-18T02:12:41.571Z,66.06
2023-03-18T02:13:45.942Z,67.28
2023-03-18T02:14:48.518Z,66.28
2023-03-18T02:15:58.610Z,66.91
2023-03-18T02:17:01.947Z,66.34
2023-03-18T02:18:09.166Z,65.52
2023-03-18T02:19:39.797Z,65.77
2023-03-18T02:20:51.640Z,66.12
2023-03-18T02:21:59.029Z,65.59
2023-03-18T02:23:25.756Z,66.65
2023-03-18T02:24:42.585Z,65.62
2023-03-18T02:26:10.286Z,65.45
2023-03-18T02:27:14.421Z,66.39
2023-03-18T02:28:24.631Z,68.11
2023-03-18T02:29:31.109Z,68.25
2023-03-18T02:30:40.230Z,66.95
2023-03-18T02:31:42.692Z,65.93
2023-03-18T02:32:47.353Z,66.07
2023-03-18T02:33:49.454Z,66.89
2023-03-18T02:34:50.861Z,66.69
2023-03-18T02:36:00.931Z,66.61
2023-03-18T02:37:02.680Z,66.83
2023-03-18T02:38:04.968Z,66.13
2023-03-18T02:39:06.419Z,67.17
2023-03-18T02:40:29.959Z,66.83
2023-03-18T02:41:35.310Z,66.68
2023-03-18T02:42:36.735Z,66.47
2023-03-18T02:43:38.169Z,66.17
2023-03-18T02:44:43.325Z,66.53
2023-03-18T02:46:07.043Z,65.24
2023-03-18T02:47:20.844Z,65.63
2023-03-18T02:48:26.112Z,65.87
2023-03-18T02:49:28.744Z,64.69
2023-03-18T02:50:30.406Z,64.53
2023-03-18T02:51:32.239Z,63.58
2023-03-18T02:52:33.664Z,62.99
2023-03-18T02:53:35.151Z,61.59
2023-03-18T02:54:37.032Z,61.69
2023-03-18T02:55:38.566Z,62.98
2023-03-18T02:56:41.645Z,63.98
2023-03-18T02:57:43.098Z,63.97
2023-03-18T02:58:45.932Z,64.12
2023-03-18T02:59:47.359Z,64.94
2023-03-18T03:00:48.846Z,65.14
2023-03-18T03:01:52.256Z,63.31
2023-03-18T03:02:54.121Z,63.75
2023-03-18T03:03:56.339Z,63.95
2023-03-18T03:04:57.760Z,65.19
2023-03-18T03:05:59.241Z,65.57
2023-03-18T03:07:01.536Z,65.91
2023-03-18T03:08:03.615Z,65.45
2023-03-18T03:09:06.787Z,65.98
2023-03-18T03:10:09.080Z,64.90
2023-03-18T03:11:11.418Z,67.79
2023-03-18T03:12:13.128Z,66.14
2023-03-18T03:13:14.598Z,66.32
2023-03-18T03:14:16.804Z,68.73
2023-03-18T03:15:19.297Z,67.09
2023-03-18T03:16:21.176Z,66.54
2023-03-18T03:17:22.728Z,67.00
2023-03-18T03:18:24.475Z,66.07
2023-03-18T03:19:25.914Z,65.53
2023-03-18T03:20:27.364Z,65.37
2023-03-18T03:21:29.204Z,64.95
2023-03-18T03:22:30.632Z,65.46
2023-03-18T03:23:32.530Z,64.83
2023-03-18T03:24:34.001Z,64.78
2023-03-18T03:25:36.587Z,64.67
2023-03-18T03:26:38.034Z,64.59
2023-03-18T03:27:39.452Z,64.59
2023-03-18T03:28:41.523Z,63.80
2023-03-18T03:29:43.449Z,64.97
2023-03-18T03:30:45.852Z,64.74
2023-03-18T03:31:47.387Z,64.41
2023-03-18T03:32:49.499Z,65.21
2023-03-18T03:33:50.936Z,64.83
2023-03-18T03:34:52.504Z,63.91
2023-03-18T03:35:55.041Z,65.01
2023-03-18T03:36:56.816Z,64.25
2023-03-18T03:37:58.320Z,64.54
2023-03-18T03:38:59.722Z,65.59
2023-03-18T03:40:01.180Z,65.01
2023-03-18T03:41:02.805Z,64.85
2023-03-18T03:42:04.351Z,64.85
2023-03-18T03:43:06.452Z,64.67
2023-03-18T03:44:07.808Z,64.97
2023-03-18T03:45:10.369Z,65.23
2023-03-18T03:46:11.929Z,65.19
2023-03-18T03:47:13.499Z,65.75
2023-03-18T03:48:14.940Z,65.51
2023-03-18T03:49:16.697Z,65.65
2023-03-18T03:50:18.540Z,65.60
2023-03-18T03:51:20.170Z,66.33
2023-03-18T03:52:21.854Z,66.18
2023-03-18T03:53:24.476Z,67.03
2023-03-18T03:54:26.812Z,66.90
2023-03-18T03:55:28.412Z,65.82
2023-03-18T03:56:31.372Z,66.06
2023-03-18T03:57:33.167Z,66.17
2023-03-18T03:58:35.725Z,66.33
2023-03-18T03:59:37.534Z,66.46
2023-03-18T04:00:39.001Z,68.39
2023-03-18T04:01:41.225Z,68.54
2023-03-18T04:02:44.591Z,67.14
2023-03-18T04:03:46.107Z,66.76
2023-03-18T04:04:47.561Z,65.63
2023-03-18T04:05:49.401Z,66.17
2023-03-18T04:06:50.867Z,65.74
2023-03-18T04:07:53.747Z,66.57
2023-03-18T04:08:55.594Z,66.24
2023-03-18T04:09:57.137Z,66.83
2023-03-18T04:10:59.221Z,66.66
2023-03-18T04:12:00.761Z,67.14
2023-03-18T04:13:03.818Z,65.26
2023-03-18T04:14:05.301Z,65.01
2023-03-18T04:15:08.074Z,64.70
2023-03-18T04:16:09.643Z,64.40
2023-03-18T04:17:11.425Z,65.43
2023-03-18T04:18:14.676Z,64.83
2023-03-18T04:19:17.561Z,63.92
2023-03-18T04:20:19.166Z,65.21
2023-03-18T04:21:21.102Z,65.20
2023-03-18T04:22:23.924Z,65.93
2023-03-18T04:23:25.676Z,66.03
2023-03-18T04:24:27.221Z,66.92
2023-03-18T04:25:29.408Z,65.75
2023-03-18T04:26:31.191Z,65.28
2023-03-18T04:27:33.306Z,66.02
2023-03-18T04:28:35.073Z,65.78
2023-03-18T04:29:37.800Z,66.69
2023-03-18T04:30:39.241Z,66.46
2023-03-18T04:31:40.799Z,66.00
2023-03-18T04:32:42.277Z,65.65
2023-03-18T04:33:44.723Z,66.74
2023-03-18T04:34:46.400Z,67.54
2023-03-18T04:35:48.572Z,66.15
2023-03-18T04:36:50.032Z,66.97
2023-03-18T04:37:51.443Z,65.11
2023-03-18T04:38:52.865Z,65.77
2023-03-18T04:39:54.368Z,67.02
2023-03-18T04:40:55.861Z,65.51
2023-03-18T04:41:58.323Z,66.23
2023-03-18T04:42:59.869Z,65.93
2023-03-18T04:44:01.299Z,65.62
2023-03-18T04:45:02.845Z,65.46
2023-03-18T04:46:04.411Z,66.23
2023-03-18T04:47:06.804Z,65.30
2023-03-18T04:48:08.198Z,66.33
2023-03-18T04:49:10.476Z,65.50
2023-03-18T04:50:13.170Z,65.21
2023-03-18T04:51:15.381Z,64.43
2023-03-18T04:52:17.126Z,64.72
2023-03-18T04:53:18.567Z,65.60
2023-03-18T04:54:20.028Z,65.74
2023-03-18T04:55:21.827Z,65.18
2023-03-18T04:56:24.034Z,64.80
2023-03-18T04:57:25.958Z,65.51
2023-03-18T04:58:27.919Z,67.45
2023-03-18T04:59:29.343Z,66.77
2023-03-18T05:00:30.849Z,65.85
2023-03-18T05:01:32.299Z,66.15
2023-03-18T05:02:36.567Z,66.00
2023-03-18T05:03:38.036Z,64.96
2023-03-18T05:04:39.768Z,65.18
2023-03-18T05:05:41.228Z,66.48
2023-03-18T05:06:42.671Z,68.45
2023-03-18T05:07:44.271Z,67.29
2023-03-18T05:08:45.968Z,65.47
2023-03-18T05:09:47.581Z,65.36
2023-03-18T05:10:52.360Z,65.90
2023-03-18T05:11:54.150Z,66.35
2023-03-18T05:12:56.205Z,64.91
2023-03-18T05:13:57.557Z,65.67
2023-03-18T05:14:59.021Z,64.65
2023-03-18T05:16:00.437Z,65.53
2023-03-18T05:17:04.336Z,65.01
2023-03-18T05:18:05.855Z,64.94
2023-03-18T05:19:08.477Z,66.50
2023-03-18T05:20:10.711Z,65.34
2023-03-18T05:21:12.533Z,65.71
2023-03-18T05:22:17.427Z,65.99
2023-03-18T05:23:18.894Z,65.96
2023-03-18T05:24:20.313Z,67.61
2023-03-18T05:25:21.812Z,67.69
2023-03-18T05:26:23.462Z,67.66
2023-03-18T05:27:27.521Z,68.55
2023-03-18T05:28:29.207Z,68.91
2023-03-18T05:29:30.660Z,68.73
2023-03-18T05:30:32.116Z,68.78
2023-03-18T05:31:33.646Z,68.48
2023-03-18T05:32:35.441Z,70.13
2023-03-18T05:33:37.105Z,69.97
2023-03-18T05:34:40.089Z,70.37
2023-03-18T05:35:41.642Z,70.75
2023-03-18T05:36:43.043Z,70.80
2023-03-18T05:37:44.610Z,71.28
2023-03-18T05:38:46.115Z,71.30
2023-03-18T05:39:47.812Z,71.10
2023-03-18T05:40:49.234Z,72.08
2023-03-18T05:41:50.882Z,70.86
2023-03-18T05:42:56.201Z,72.11
2023-03-18T05:43:57.899Z,71.59
2023-03-18T05:44:59.539Z,70.79
2023-03-18T05:46:01.052Z,71.01
2023-03-18T05:47:02.861Z,71.26
2023-03-18T05:48:05.091Z,70.58
2023-03-18T05:49:06.641Z,70.92
2023-03-18T05:50:08.698Z,71.28
2023-03-18T05:51:10.001Z,71.85
2023-03-18T05:52:11.682Z,71.30
2023-03-18T05:53:13.695Z,72.36
2023-03-18T05:54:16.647Z,72.73
2023-03-18T05:55:18.139Z,71.10
2023-03-18T05:56:19.605Z,72.58
2023-03-18T05:57:21.245Z,71.18
2023-03-18T05:58:22.664Z,71.58
2023-03-18T05:59:25.073Z,70.68
2023-03-18T06:00:28.740Z,70.06
2023-03-18T06:01:31.434Z,70.75
2023-03-18T06:02:32.955Z,70.08
2023-03-18T06:03:34.699Z,71.33
2023-03-18T06:04:37.073Z,70.91
2023-03-18T06:05:38.502Z,71.34
2023-03-18T06:06:40.721Z,71.10
2023-03-18T06:07:42.156Z,70.53
2023-03-18T06:08:43.688Z,70.14
2023-03-18T06:09:45.211Z,69.88
2023-03-18T06:10:47.020Z,70.78
2023-03-18T06:11:49.080Z,70.69
2023-03-18T06:12:50.886Z,70.74
2023-03-18T06:13:52.407Z,73.10
2023-03-18T06:14:54.815Z,71.36
2023-03-18T06:15:57.153Z,70.84
2023-03-18T06:16:59.443Z,69.67
2023-03-18T06:18:00.884Z,69.72
2023-03-18T06:19:04.222Z,70.38
2023-03-18T06:20:08.640Z,69.72
2023-03-18T06:21:10.560Z,69.81
2023-03-18T06:22:12.713Z,69.55
2023-03-18T06:23:14.874Z,68.89
2023-03-18T06:24:16.316Z,69.66
2023-03-18T06:25:20.009Z,68.81
2023-03-18T06:26:21.973Z,69.44
2023-03-18T06:27:23.713Z,68.63
2023-03-18T06:28:25.370Z,69.02
2023-03-18T06:29:26.936Z,68.17
2023-03-18T06:30:29.091Z,67.50
2023-03-18T06:31:31.167Z,68.26
2023-03-18T06:32:33.886Z,67.10
2023-03-18T06:33:35.357Z,66.85
2023-03-18T06:34:37.013Z,66.49
2023-03-18T06:35:38.738Z,66.66
2023-03-18T06:36:40.571Z,68.40
2023-03-18T06:37:42.694Z,68.38
2023-03-18T06:38:44.956Z,66.11
2023-03-18T06:39:46.381Z,66.87
2023-03-18T06:40:47.811Z,65.30
2023-03-18T06:41:49.212Z,66.45
2023-03-18T06:42:51.439Z,65.92
2023-03-18T06:43:53.643Z,65.42
2023-03-18T06:44:55.195Z,65.73
2023-03-18T06:45:56.803Z,65.52
2023-03-18T06:46:58.235Z,66.13
2023-03-18T06:48:00.896Z,66.16
2023-03-18T06:49:02.862Z,65.95
2023-03-18T06:50:05.701Z,65.34
2023-03-18T06:51:08.020Z,67.05
2023-03-18T06:52:09.632Z,67.33
2023-03-18T06:53:12.496Z,66.87
2023-03-18T06:54:14.498Z,65.62
2023-03-18T06:55:16.660Z,66.32
2023-03-18T06:56:18.151Z,66.66
2023-03-18T06:57:20.356Z,66.46
2023-03-18T06:58:21.845Z,65.92
2023-03-18T06:59:23.283Z,66.46
2023-03-18T07:00:25.167Z,65.73
2023-03-18T07:01:26.951Z,65.92
2023-03-18T07:02:28.412Z,65.96
2023-03-18T07:03:29.985Z,65.69
2023-03-18T07:04:33.669Z,64.86
2023-03-18T07:05:35.236Z,65.03
2023-03-18T07:06:37.086Z,64.98
2023-03-18T07:07:39.769Z,64.98
2023-03-18T07:08:41.229Z,65.51
2023-03-18T07:09:44.792Z,63.92
2023-03-18T07:10:46.297Z,64.85
2023-03-18T07:11:47.721Z,65.69
2023-03-18T07:12:50.418Z,64.54
2023-03-18T07:13:53.104Z,66.03
2023-03-18T07:14:54.592Z,64.35
2023-03-18T07:16:00.279Z,62.63
2023-03-18T07:17:02.724Z,62.55
2023-03-18T07:18:05.046Z,64.70
2023-03-18T07:19:07.273Z,62.88
2023-03-18T07:20:10.276Z,62.71
2023-03-18T07:21:11.785Z,62.78
2023-03-18T07:22:13.289Z,60.78
2023-03-18T07:23:14.843Z,62.77
2023-03-18T07:24:17.206Z,62.19
2023-03-18T07:25:19.466Z,60.48
2023-03-18T07:26:22.256Z,62.20
2023-03-18T07:27:23.837Z,63.31
2023-03-18T07:28:25.290Z,63.80
2023-03-18T07:29:26.747Z,61.85
2023-03-18T07:30:28.851Z,62.13
2023-03-18T07:31:30.910Z,61.40
2023-03-18T07:32:32.585Z,61.08
2023-03-18T07:33:34.555Z,59.94
2023-03-18T07:34:36.106Z,60.71
2023-03-18T07:35:40.970Z,60.72
2023-03-18T07:36:42.564Z,60.33
2023-03-18T07:37:44.943Z,61.40
2023-03-18T07:38:46.357Z,60.89
2023-03-18T07:39:48.560Z,60.28
2023-03-18T07:40:50.054Z,61.82
2023-03-18T07:41:51.676Z,62.69
2023-03-18T07:42:53.569Z,62.37
2023-03-18T07:43:55.213Z,61.56
2023-03-18T07:44:56.687Z,60.42
2023-03-18T07:45:58.689Z,59.40
2023-03-18T07:47:00.029Z,61.23
2023-03-18T07:48:01.488Z,62.53
2023-03-18T07:49:03.227Z,62.77
2023-03-18T07:50:05.829Z,61.74
2023-03-18T07:51:07.456Z,60.82
2023-03-18T07:52:09.237Z,61.75
2023-03-18T07:53:11.350Z,60.62
2023-03-18T07:54:12.819Z,59.12
2023-03-18T07:55:14.718Z,57.64
2023-03-18T07:56:16.122Z,60.70
2023-03-18T07:57:17.936Z,60.90
2023-03-18T07:58:19.430Z,59.40
2023-03-18T07:59:20.982Z,58.00
2023-03-18T08:00:23.026Z,56.98
2023-03-18T08:01:25.537Z,57.59
2023-03-18T08:02:28.384Z,59.78
2023-03-18T08:03:29.820Z,57.71
2023-03-18T08:04:32.282Z,57.74
2023-03-18T08:05:34.179Z,56.05
2023-03-18T08:06:35.804Z,56.48
2023-03-18T08:07:38.129Z,57.47
2023-03-18T08:08:40.701Z,58.09
2023-03-18T08:09:42.130Z,58.15
2023-03-18T08:10:43.526Z,60.42
2023-03-18T08:11:45.076Z,58.52
2023-03-18T08:12:53.197Z,56.29
2023-03-18T08:13:55.235Z,57.18
2023-03-18T08:14:56.629Z,55.54
2023-03-18T08:15:58.651Z,55.10
2023-03-18T08:17:00.163Z,55.29
2023-03-18T08:18:01.712Z,55.68
2023-03-18T08:19:03.803Z,57.04
2023-03-18T08:20:06.577Z,56.54
2023-03-18T08:21:09.428Z,55.70
2023-03-18T08:22:11.303Z,57.19
2023-03-18T08:23:12.796Z,54.60
2023-03-18T08:24:14.234Z,55.50
2023-03-18T08:25:16.529Z,54.88
2023-03-18T08:26:17.969Z,55.79
2023-03-18T08:27:19.431Z,55.36
2023-03-18T08:28:20.930Z,55.71
2023-03-18T08:29:22.415Z,55.01
2023-03-18T08:30:28.492Z,54.31
2023-03-18T08:31:30.004Z,54.95
2023-03-18T08:32:32.582Z,53.43
2023-03-18T08:33:34.063Z,53.78
2023-03-18T08:34:35.875Z,54.78
2023-03-18T08:35:40.363Z,52.46
2023-03-18T08:36:42.661Z,51.84
2023-03-18T08:37:44.077Z,51.98
2023-03-18T08:38:45.520Z,50.95
2023-03-18T08:39:46.922Z,49.96
2023-03-18T08:40:48.483Z,51.22
2023-03-18T08:41:50.028Z,51.26
2023-03-18T08:42:52.257Z,51.34
2023-03-18T08:43:55.334Z,49.75
2023-03-18T08:44:57.216Z,49.64
2023-03-18T08:45:59.085Z,50.65
2023-03-18T08:47:01.285Z,49.75
2023-03-18T08:48:02.826Z,50.57
2023-03-18T08:49:04.676Z,50.57
2023-03-18T08:50:06.243Z,48.90
2023-03-18T08:51:10.850Z,50.68
2023-03-18T08:52:12.731Z,50.37
2023-03-18T08:53:14.577Z,48.70
2023-03-18T08:54:16.429Z,48.49
2023-03-18T08:55:17.963Z,50.24
2023-03-18T08:56:19.476Z,51.15
2023-03-18T08:57:20.903Z,48.78
2023-03-18T08:58:22.461Z,49.86
2023-03-18T08:59:23.957Z,50.53
2023-03-18T09:00:26.285Z,50.48
2023-03-18T09:01:28.095Z,49.87
2023-03-18T09:02:29.567Z,49.15
2023-03-18T09:03:31.433Z,49.89
2023-03-18T09:04:32.889Z,50.74
2023-03-18T09:05:34.989Z,53.10
2023-03-18T09:06:36.683Z,51.87
2023-03-18T09:07:38.249Z,51.11
2023-03-18T09:08:39.826Z,52.03
2023-03-18T09:09:43.966Z,50.46
2023-03-18T09:10:46.342Z,52.09
2023-03-18T09:11:47.951Z,53.15
2023-03-18T09:12:50.004Z,53.34
2023-03-18T09:13:52.403Z,50.99
2023-03-18T09:14:53.937Z,51.71
2023-03-18T09:15:55.358Z,53.41
2023-03-18T09:16:56.829Z,52.49
2023-03-18T09:18:11.042Z,52.21
2023-03-18T09:19:13.751Z,50.86
2023-03-18T09:20:18.267Z,50.15
2023-03-18T09:21:20.266Z,53.11
2023-03-18T09:22:21.723Z,52.34
2023-03-18T09:23:23.364Z,50.42
2023-03-18T09:24:25.048Z,50.90
2023-03-18T09:25:27.060Z,50.36
2023-03-18T09:26:28.486Z,51.20
2023-03-18T09:27:29.988Z,52.12
2023-03-18T09:28:31.492Z,51.09
2023-03-18T09:29:33.327Z,51.29
2023-03-18T09:30:35.190Z,51.96
2023-03-18T09:31:37.401Z,53.18
2023-03-18T09:32:38.877Z,52.54
2023-03-18T09:33:41.849Z,52.65
2023-03-18T09:34:44.502Z,51.20
2023-03-18T09:35:46.101Z,51.63
2023-03-18T09:36:51.079Z,50.71
2023-03-18T09:37:53.837Z,50.36
2023-03-18T09:38:55.997Z,49.78
2023-03-18T09:39:57.450Z,49.27
2023-03-18T09:41:26.145Z,49.89
2023-03-18T09:42:27.515Z,50.52
2023-03-18T09:43:58.215Z,50.97
2023-03-18T09:45:03.195Z,51.85
2023-03-18T09:46:17.842Z,48.95
2023-03-18T09:48:01.664Z,49.77
2023-03-18T09:49:22.101Z,49.39
2023-03-18T09:51:21.863Z,50.21
2023-03-18T09:52:31.520Z,49.92
2023-03-18T09:53:50.336Z,49.28
2023-03-18T09:55:24.132Z,50.19
2023-03-18T09:56:29.608Z,48.14
2023-03-18T09:57:37.250Z,49.22
2023-03-18T09:58:56.474Z,47.55
2023-03-18T10:00:05.200Z,48.08
2023-03-18T10:01:09.582Z,48.58
2023-03-18T10:02:37.198Z,47.80
2023-03-18T10:04:04.786Z,46.59
2023-03-18T10:05:15.114Z,46.50
2023-03-18T10:06:22.047Z,47.47
2023-03-18T10:07:29.703Z,45.54
2023-03-18T10:08:52.203Z,44.91
2023-03-18T10:10:19.146Z,46.06
2023-03-18T10:11:32.489Z,44.43
2023-03-18T10:12:36.918Z,45.38
2023-03-18T10:13:47.766Z,46.31
2023-03-18T10:15:01.971Z,45.78
2023-03-18T10:16:07.196Z,45.32
2023-03-18T10:17:31.201Z,45.21
2023-03-18T10:18:43.346Z,46.18
2023-03-18T10:19:50.785Z,43.16
2023-03-18T10:21:04.381Z,43.83
2023-03-18T10:22:33.832Z,44.86
2023-03-18T10:23:44.591Z,44.28
2023-03-18T10:24:56.884Z,45.12
2023-03-18T10:26:06.318Z,44.33
2023-03-18T10:27:10.591Z,45.45
2023-03-18T10:28:43.755Z,44.95
2023-03-18T10:29:49.316Z,44.65
2023-03-18T10:31:11.313Z,44.25
2023-03-18T10:32:50.032Z,44.33
2023-03-18T10:34:14.659Z,43.14
2023-03-18T10:35:41.544Z,44.00
2023-03-18T10:36:49.312Z,44.20
2023-03-18T10:37:50.727Z,46.25
2023-03-18T10:38:55.007Z,43.76
2023-03-18T10:39:57.539Z,44.71
2023-03-18T10:40:59.252Z,44.78
2023-03-18T10:42:30.545Z,45.43
2023-03-18T10:43:33.896Z,43.96
2023-03-18T10:44:39.894Z,43.73
2023-03-18T10:45:43.217Z,46.08
2023-03-18T10:46:47.686Z,46.36
2023-03-18T10:48:03.274Z,45.40
2023-03-18T10:49:35.531Z,46.07
2023-03-18T10:50:58.209Z,44.53
2023-03-18T10:52:13.940Z,44.35
2023-03-18T10:53:28.667Z,44.54
2023-03-18T10:54:41.051Z,44.40
2023-03-18T10:55:57.702Z,46.21
2023-03-18T10:56:59.174Z,45.40
2023-03-18T10:58:02.610Z,44.42
2023-03-18T10:59:30.741Z,45.20
2023-03-18T11:00:34.423Z,45.59
2023-03-18T11:01:37.462Z,45.39
2023-03-18T11:02:39.926Z,44.12
2023-03-18T11:03:46.287Z,44.22
2023-03-18T11:04:52.136Z,44.21
2023-03-18T11:05:56.459Z,43.65
2023-03-18T11:07:01.624Z,43.40
2023-03-18T11:08:08.874Z,43.90
2023-03-18T11:09:13.165Z,42.89
2023-03-18T11:10:21.508Z,42.95
2023-03-18T11:11:34.504Z,42.89
2023-03-18T11:12:36.339Z,41.68
2023-03-18T11:13:37.725Z,42.57
2023-03-18T11:14:40.273Z,43.75
2023-03-18T11:15:50.054Z,44.47
2023-03-18T11:17:29.685Z,44.08
2023-03-18T11:18:33.831Z,44.27
2023-03-18T11:19:48.550Z,45.68
2023-03-18T11:21:00.971Z,43.68
2023-03-18T11:22:11.502Z,44.67
2023-03-18T11:23:20.365Z,45.97
2023-03-18T11:24:36.043Z,47.56
2023-03-18T11:25:37.520Z,44.82
2023-03-18T11:26:52.552Z,45.96
2023-03-18T11:28:05.756Z,46.40
2023-03-18T11:29:13.537Z,45.53
2023-03-18T11:30:31.263Z,46.38
2023-03-18T11:31:49.570Z,45.57
2023-03-18T11:33:00.927Z,46.66
2023-03-18T11:34:08.936Z,47.21
2023-03-18T11:35:20.563Z,45.40
2023-03-18T11:36:23.938Z,45.74
2023-03-18T11:37:36.401Z,47.40
2023-03-18T11:38:38.201Z,46.84
2023-03-18T11:39:41.494Z,46.27
2023-03-18T11:40:43.668Z,47.00
2023-03-18T11:41:45.139Z,47.36
2023-03-18T11:42:48.581Z,46.77
2023-03-18T11:44:05.385Z,46.13
2023-03-18T11:45:27.874Z,47.54
2023-03-18T11:46:39.533Z,46.86
2023-03-18T11:47:43.346Z,48.43
2023-03-18T11:48:44.804Z,47.12
2023-03-18T11:49:46.211Z,46.99
2023-03-18T11:51:28.545Z,47.27
2023-03-18T11:52:44.422Z,46.76
2023-03-18T11:54:14.811Z,45.73
2023-03-18T11:55:27.941Z,45.65
2023-03-18T11:56:54.787Z,47.86
2023-03-18T11:58:08.589Z,46.89
2023-03-18T11:59:12.991Z,47.59
2023-03-18T12:00:28.612Z,45.46
2023-03-18T12:01:48.220Z,45.91
2023-03-18T12:03:08.194Z,44.16
2023-03-18T12:04:27.885Z,46.06
2023-03-18T12:05:52.106Z,46.14
2023-03-18T12:07:31.078Z,47.25
2023-03-18T12:08:56.957Z,45.47
2023-03-18T12:10:16.541Z,46.85
2023-03-18T12:11:41.147Z,46.44
2023-03-18T12:12:54.788Z,45.30
2023-03-18T12:14:07.908Z,47.47
2023-03-18T12:15:30.280Z,46.13
2023-03-18T12:16:44.778Z,45.51
2023-03-18T12:17:59.504Z,45.86
2023-03-18T12:19:29.815Z,45.62
2023-03-18T12:20:50.653Z,46.12
2023-03-18T12:22:25.804Z,45.24
2023-03-18T12:23:50.231Z,45.19
2023-03-18T12:25:21.081Z,46.06
2023-03-18T12:26:49.568Z,46.48
2023-03-18T12:28:18.580Z,47.08
2023-03-18T12:29:49.451Z,48.45
2023-03-18T12:30:59.839Z,46.23
2023-03-18T12:32:33.906Z,46.39
2023-03-18T12:33:56.501Z,45.47
2023-03-18T12:35:23.292Z,44.59
2023-03-18T12:36:56.394Z,44.51
2023-03-18T12:38:35.707Z,45.16
2023-03-18T12:39:49.365Z,44.76
2023-03-18T12:41:06.580Z,45.77
2023-03-18T12:42:18.458Z,46.74
2023-03-18T12:43:26.082Z,46.07
2023-03-18T12:44:51.828Z,44.99
2023-03-18T12:45:58.515Z,45.45
2023-03-18T12:47:08.769Z,44.70
2023-03-18T12:48:16.377Z,45.60
2023-03-18T12:49:34.685Z,45.62
2023-03-18T12:50:47.539Z,45.14
2023-03-18T12:51:56.034Z,45.29
2023-03-18T12:53:04.316Z,47.24
2023-03-18T12:54:16.529Z,45.97
2023-03-18T12:55:29.134Z,45.95
2023-03-18T12:56:35.060Z,45.77
2023-03-18T12:57:48.650Z,45.05
2023-03-18T12:58:55.094Z,44.62
2023-03-18T13:00:02.477Z,44.91
2023-03-18T13:01:22.042Z,44.86
2023-03-18T13:02:57.048Z,45.25
2023-03-18T13:04:07.218Z,44.79
2023-03-18T13:05:20.641Z,46.65
2023-03-18T13:06:42.003Z,46.65
2023-03-18T13:07:52.372Z,46.44
2023-03-18T13:09:21.888Z,48.01
2023-03-18T13:10:24.680Z,48.32
2023-03-18T13:12:01.957Z,49.12
2023-03-18T13:13:08.478Z,48.56
2023-03-18T13:14:31.644Z,49.21
2023-03-18T13:15:39.255Z,49.07
2023-03-18T13:16:41.556Z,49.20
2023-03-18T13:17:47.865Z,48.43
2023-03-18T13:18:52.519Z,49.20
2023-03-18T13:19:58.521Z,48.08
2023-03-18T13:21:01.195Z,47.54
2023-03-18T13:22:48.792Z,47.46
2023-03-18T13:24:26.458Z,47.11
2023-03-18T13:25:41.882Z,47.90
2023-03-18T13:27:07.751Z,48.19
2023-03-18T13:28:21.339Z,46.36
2023-03-18T13:29:30.446Z,47.53
2023-03-18T13:30:44.637Z,46.71
2023-03-18T13:32:11.538Z,46.92
2023-03-18T13:33:21.765Z,46.30
2023-03-18T13:34:47.950Z,46.43
2023-03-18T13:36:04.346Z,46.37
2023-03-18T13:37:23.074Z,47.42
2023-03-18T13:39:12.669Z,47.34
2023-03-18T13:40:30.563Z,46.63
2023-03-18T13:41:52.147Z,46.81
2023-03-18T13:42:59.149Z,45.69
2023-03-18T13:44:06.884Z,46.05
2023-03-18T13:45:27.884Z,48.09
2023-03-18T13:46:32.953Z,46.38
2023-03-18T13:47:37.968Z,47.37
2023-03-18T13:48:41.368Z,45.55
2023-03-18T13:49:44.563Z,45.86
2023-03-18T13:50:48.726Z,46.87
2023-03-18T13:52:01.530Z,46.11
2023-03-18T13:53:05.016Z,46.19
2023-03-18T13:54:14.829Z,45.59
2023-03-18T13:55:25.181Z,45.90
2023-03-18T13:56:28.970Z,46.78
2023-03-18T13:57:30.343Z,48.30
2023-03-18T13:58:48.180Z,46.25
2023-03-18T13:59:50.165Z,46.54
2023-03-18T14:00:54.377Z,47.11
2023-03-18T14:02:00.117Z,47.04
2023-03-18T14:03:24.064Z,45.27
2023-03-18T14:04:32.453Z,46.96
2023-03-18T14:05:41.598Z,46.19
2023-03-18T14:06:56.828Z,46.21
2023-03-18T14:07:59.250Z,46.39
2023-03-18T14:09:31.590Z,45.75
2023-03-18T14:10:33.125Z,47.37